Pagrindinis puslapis
METAR-TAF:

METAR-TAF

Oro uostai :

Klužas-Napoka, Rumunija

platuma: 46-47N, ilguma: 023-34E, Aukštis: 315 m

Dabartinis oras

Ataskaita buvo paskelbta 34 minutes, ne 09:30 UTC
Vėjas 7 kt iš Rytų, svyruoja nuo Šiaurės Rytų ir Pietryčių
Temperatūra 18°C
Drėgmė 30%
Slėgis 1022 hPa
Matomumas 10 km arba daugiau
nėra debesų žemiau 1500 m ir nėra kamuolinių lietaus debesų

METAR: LRCL 220930Z 10007KT 050V130 CAVOK 18/M00 Q1022

Laikas: 13:04 (10:04 UTC)

Prognozė

Ataskaita buvo paskelbta 2 valandos ir 4 minutes, ne 08:00 UTC
Prognozė galioja nuo 22 metu 09 UTC su 22 metu 18 UTC
Vėjas 4 kt nuo kintamojo kryptimis
Matomumas 10 km arba daugiau
nėra debesų žemiau 1500 m ir nėra kamuolinių lietaus debesų

TAF: LRCL 220800Z 2209/2218 VRB04KT CAVOK

Orai ataskaitas ir orų prognozės (METAR, TAF).

turimą stotys yra geltonos ir raudonos taškus žemėlapyje.

Perkelti pele per norėdami pamatyti stoties vardą.

Tada spustelėkite, norėdami matyti oro stebėjimo ir prognozės.

Norėdami pakeisti žemėlapį: spustelėkite ant žalios mygtukų su juodo kryžiaus žemyn,; žalią mygtuką su brūkšneliu, jei norite nutolinti; arba žalių rodyklių gretimoms žemėlapius.


METAR-TAF: